createdAt,value
2023-01-05T00:01:49.802Z,90.22
2023-01-05T00:04:17.072Z,90.50
2023-01-05T00:06:44.779Z,90.20
2023-01-05T00:09:14.228Z,89.91
2023-01-05T00:11:59.739Z,89.77
2023-01-05T00:14:50.762Z,89.92
2023-01-05T00:17:39.684Z,89.95
2023-01-05T00:20:31.496Z,90.08
2023-01-05T00:22:58.536Z,90.04
2023-01-05T00:25:30.109Z,90.10
2023-01-05T00:27:58.690Z,89.96
2023-01-05T00:30:34.260Z,90.07
2023-01-05T00:33:01.761Z,89.93
2023-01-05T00:35:31.664Z,90.09
2023-01-05T00:37:58.516Z,90.05
2023-01-05T00:40:25.582Z,89.76
2023-01-05T00:42:52.756Z,89.40
2023-01-05T00:45:22.006Z,89.16
2023-01-05T00:47:51.713Z,88.92
2023-01-05T00:50:19.697Z,88.94
2023-01-05T00:52:47.248Z,88.88
2023-01-05T00:55:14.664Z,88.56
2023-01-05T00:57:41.852Z,88.81
2023-01-05T01:00:17.163Z,88.49
2023-01-05T01:02:44.715Z,88.14
2023-01-05T01:05:12.304Z,87.94
2023-01-05T01:07:39.371Z,87.93
2023-01-05T01:10:07.681Z,87.72
2023-01-05T01:15:11.559Z,86.95
2023-01-05T01:17:38.668Z,87.04
2023-01-05T01:20:06.258Z,87.01
2023-01-05T01:22:33.206Z,87.02
2023-01-05T01:25:01.331Z,86.75
2023-01-05T01:27:30.722Z,86.75
2023-01-05T01:30:01.743Z,87.13
2023-01-05T01:32:30.409Z,87.24
2023-01-05T01:34:57.523Z,86.96
2023-01-05T01:37:25.000Z,86.83
2023-01-05T01:39:55.011Z,86.73
2023-01-05T01:42:22.849Z,86.67
2023-01-05T01:44:57.252Z,86.50
2023-01-05T01:47:33.461Z,86.61
2023-01-05T01:50:28.797Z,86.72
2023-01-05T01:53:12.098Z,87.09
2023-01-05T01:55:41.083Z,86.96
2023-01-05T01:58:13.710Z,86.81
2023-01-05T02:00:42.580Z,86.91
2023-01-05T02:03:10.421Z,86.89
2023-01-05T02:05:43.715Z,86.71
2023-01-05T02:08:13.474Z,86.86
2023-01-05T02:11:02.602Z,86.82
2023-01-05T02:14:05.193Z,87.00
2023-01-05T02:16:52.091Z,86.68
2023-01-05T02:19:25.888Z,86.57
2023-01-05T02:22:23.949Z,86.55
2023-01-05T02:25:23.879Z,86.33
2023-01-05T02:28:23.351Z,86.32
2023-01-05T02:30:59.349Z,86.56
2023-01-05T02:34:11.326Z,86.83
2023-01-05T02:36:56.105Z,87.04
2023-01-05T02:39:34.680Z,86.87
2023-01-05T02:42:15.449Z,86.80
2023-01-05T02:44:44.626Z,86.84
2023-01-05T02:47:29.583Z,86.73
2023-01-05T02:50:09.801Z,86.37
2023-01-05T02:52:43.821Z,86.33
2023-01-05T02:55:17.158Z,86.08
2023-01-05T02:58:00.388Z,86.11
2023-01-05T03:00:50.665Z,86.44
2023-01-05T03:03:46.157Z,86.40
2023-01-05T03:06:25.996Z,86.22
2023-01-05T03:08:57.413Z,86.70
2023-01-05T03:11:52.891Z,87.25
2023-01-05T03:14:28.704Z,87.46
2023-01-05T03:16:57.008Z,87.58
2023-01-05T03:19:41.290Z,87.84
2023-01-05T03:22:38.867Z,87.62
2023-01-05T03:25:32.256Z,87.30
2023-01-05T03:28:22.436Z,87.07
2023-01-05T03:31:19.723Z,86.84
2023-01-05T03:34:21.345Z,86.82
2023-01-05T03:36:53.027Z,86.58
2023-01-05T03:39:27.764Z,86.99
2023-01-05T03:41:59.146Z,87.27
2023-01-05T03:44:27.081Z,87.24
2023-01-05T03:46:54.371Z,87.50
2023-01-05T03:49:21.480Z,87.62
2023-01-05T03:51:51.998Z,87.53
2023-01-05T03:54:18.945Z,87.38
2023-01-05T03:56:47.758Z,87.15
2023-01-05T03:59:15.166Z,87.30
2023-01-05T04:02:02.357Z,87.56
2023-01-05T04:04:29.505Z,87.95
2023-01-05T04:06:56.513Z,87.86
2023-01-05T04:09:25.081Z,88.12
2023-01-05T04:11:53.293Z,87.87
2023-01-05T04:14:20.399Z,88.02
2023-01-05T04:16:48.020Z,87.98
2023-01-05T04:19:20.213Z,87.94
2023-01-05T04:21:50.506Z,87.47
2023-01-05T04:24:18.635Z,87.47
2023-01-05T04:26:46.447Z,87.28
2023-01-05T04:29:13.640Z,87.14
2023-01-05T04:31:44.256Z,86.76
2023-01-05T04:34:11.521Z,86.75
2023-01-05T04:36:39.005Z,87.26
2023-01-05T04:39:06.596Z,87.46
2023-01-05T04:41:36.834Z,88.37
2023-01-05T04:44:04.050Z,88.43
2023-01-05T04:46:31.997Z,88.56
2023-01-05T04:48:59.350Z,88.73
2023-01-05T04:51:26.339Z,88.83
2023-01-05T04:53:53.548Z,89.24
2023-01-05T04:56:23.415Z,89.36
2023-01-05T04:58:50.460Z,89.52
2023-01-05T05:01:18.858Z,89.60
2023-01-05T05:04:09.248Z,89.71
2023-01-05T05:06:36.391Z,89.85
2023-01-05T05:09:03.695Z,89.83
2023-01-05T05:11:30.732Z,89.74
2023-01-05T05:13:58.329Z,89.82
2023-01-05T05:16:25.634Z,89.89
2023-01-05T05:18:53.745Z,89.66
2023-01-05T05:21:24.921Z,89.47
2023-01-05T05:23:52.513Z,89.34
2023-01-05T05:26:20.162Z,89.28
2023-01-05T05:28:48.604Z,89.03
2023-01-05T05:31:15.731Z,89.21
2023-01-05T05:33:42.945Z,89.08
2023-01-05T05:36:10.209Z,89.27
2023-01-05T05:38:37.356Z,89.22
2023-01-05T05:41:04.238Z,89.64
2023-01-05T05:43:31.283Z,89.56
2023-01-05T05:45:58.755Z,89.77
2023-01-05T05:48:25.687Z,89.82
2023-01-05T05:50:52.818Z,89.80
2023-01-05T05:53:20.080Z,89.62
2023-01-05T05:55:51.364Z,89.63
2023-01-05T05:58:19.668Z,89.82
2023-01-05T06:00:46.931Z,89.99
2023-01-05T06:03:15.388Z,89.87
2023-01-05T06:05:42.818Z,90.20
2023-01-05T06:08:09.987Z,90.07
2023-01-05T06:10:36.971Z,90.13
2023-01-05T06:13:05.217Z,90.30
2023-01-05T06:15:54.763Z,90.36
2023-01-05T06:18:21.820Z,90.56
2023-01-05T06:20:48.800Z,90.57
2023-01-05T06:23:15.885Z,90.66
2023-01-05T06:25:43.356Z,90.70
2023-01-05T06:28:11.570Z,90.90
2023-01-05T06:30:39.764Z,90.78
2023-01-05T06:33:06.597Z,90.73
2023-01-05T06:35:33.552Z,91.02
2023-01-05T06:38:00.670Z,90.86
2023-01-05T06:40:27.825Z,90.61
2023-01-05T06:42:54.781Z,90.44
2023-01-05T06:45:21.869Z,90.91
2023-01-05T06:47:48.819Z,91.02
2023-01-05T06:50:16.022Z,91.28
2023-01-05T06:52:42.966Z,91.19
2023-01-05T06:55:12.006Z,91.34
2023-01-05T06:57:40.218Z,91.16
2023-01-05T07:00:10.515Z,91.44
2023-01-05T07:02:37.832Z,91.36
2023-01-05T07:05:05.482Z,91.50
2023-01-05T07:07:32.978Z,91.49
2023-01-05T07:10:00.413Z,91.31
2023-01-05T07:12:28.006Z,91.55
2023-01-05T07:14:57.679Z,91.36
2023-01-05T07:17:25.974Z,91.62
2023-01-05T07:19:52.978Z,91.53
2023-01-05T07:22:20.390Z,91.56
2023-01-05T07:24:47.391Z,91.38
2023-01-05T07:27:14.675Z,91.37
2023-01-05T07:29:41.988Z,91.30
2023-01-05T07:32:09.141Z,91.47
2023-01-05T07:34:36.107Z,91.23
2023-01-05T07:37:03.366Z,91.12
2023-01-05T07:39:30.386Z,91.22
2023-01-05T07:41:57.748Z,91.18
2023-01-05T07:44:26.834Z,91.06
2023-01-05T07:46:54.000Z,91.12
2023-01-05T07:49:20.915Z,90.73
2023-01-05T07:51:48.251Z,91.12
2023-01-05T07:54:15.517Z,90.95
2023-01-05T07:56:43.636Z,91.02
2023-01-05T07:59:10.642Z,91.44
2023-01-05T08:01:37.842Z,91.14
2023-01-05T08:04:07.494Z,90.48
2023-01-05T08:06:34.839Z,90.45
2023-01-05T08:09:21.709Z,90.63
2023-01-05T08:11:48.829Z,90.28
2023-01-05T08:14:15.741Z,89.00
2023-01-05T08:16:43.213Z,89.47
2023-01-05T08:19:11.533Z,89.43
2023-01-05T08:21:39.051Z,89.41
2023-01-05T08:24:06.405Z,88.92
2023-01-05T08:26:33.555Z,88.23
2023-01-05T08:29:01.899Z,87.61
2023-01-05T08:31:31.151Z,86.92
2023-01-05T08:34:00.157Z,86.45
2023-01-05T08:36:27.623Z,85.67
2023-01-05T08:38:55.481Z,85.51
2023-01-05T08:41:30.999Z,85.44
2023-01-05T08:44:02.171Z,85.04
2023-01-05T08:46:32.868Z,84.40
2023-01-05T08:49:02.109Z,84.47
2023-01-05T08:51:30.223Z,83.80
2023-01-05T08:53:57.757Z,82.94
2023-01-05T08:56:27.235Z,82.63
2023-01-05T08:58:59.206Z,82.84
2023-01-05T09:01:26.913Z,83.43
2023-01-05T09:03:54.220Z,82.84
2023-01-05T09:06:21.458Z,82.02
2023-01-05T09:08:48.746Z,81.41
2023-01-05T09:11:20.164Z,81.01
2023-01-05T09:13:51.840Z,80.79
2023-01-05T09:16:56.871Z,80.54
2023-01-05T09:19:11.119Z,79.79
2023-01-05T09:21:40.850Z,79.14
2023-01-05T09:24:12.604Z,78.55
2023-01-05T09:26:43.033Z,78.60
2023-01-05T09:29:11.815Z,77.75
2023-01-05T09:31:41.092Z,77.41
2023-01-05T09:34:08.483Z,76.30
2023-01-05T09:36:37.431Z,76.17
2023-01-05T09:39:06.402Z,76.29
2023-01-05T09:41:38.518Z,76.08
2023-01-05T09:44:15.266Z,75.60
2023-01-05T09:46:47.215Z,75.37
2023-01-05T09:49:16.249Z,74.45
2023-01-05T09:51:44.022Z,74.47
2023-01-05T09:54:17.922Z,73.06
2023-01-05T09:59:41.437Z,73.59
2023-01-05T10:02:21.093Z,73.60
2023-01-05T10:04:50.291Z,72.11
2023-01-05T10:07:27.207Z,72.60
2023-01-05T10:09:58.520Z,72.16
2023-01-05T10:12:54.615Z,71.59
2023-01-05T10:15:21.987Z,70.83
2023-01-05T10:17:49.381Z,70.05
2023-01-05T10:20:23.340Z,70.06
2023-01-05T10:23:24.888Z,69.88
2023-01-05T10:26:05.261Z,69.96
2023-01-05T10:29:10.501Z,69.06
2023-01-05T10:31:55.732Z,69.03
2023-01-05T10:34:32.300Z,68.86
2023-01-05T10:37:41.321Z,69.16
2023-01-05T10:40:13.960Z,69.29
2023-01-05T10:42:54.237Z,69.07
2023-01-05T10:45:21.623Z,68.48
2023-01-05T10:47:50.520Z,68.49
2023-01-05T10:50:36.222Z,68.58
2023-01-05T10:53:11.490Z,68.15
2023-01-05T10:55:43.513Z,67.53
2023-01-05T10:58:33.752Z,67.45
2023-01-05T11:01:08.384Z,67.26
2023-01-05T11:04:23.949Z,66.61
2023-01-05T11:06:37.753Z,65.66
2023-01-05T11:09:21.823Z,65.28
2023-01-05T11:11:55.515Z,64.96
2023-01-05T11:14:23.256Z,64.74
2023-01-05T11:16:53.629Z,64.33
2023-01-05T11:19:49.662Z,63.30
2023-01-05T11:22:31.919Z,63.31
2023-01-05T11:25:28.306Z,62.74
2023-01-05T11:28:17.889Z,61.88
2023-01-05T11:31:02.188Z,61.40
2023-01-05T11:33:33.695Z,61.26
2023-01-05T11:36:02.410Z,59.52
2023-01-05T11:38:37.720Z,59.84
2023-01-05T11:41:10.141Z,59.80
2023-01-05T11:43:38.311Z,59.72
2023-01-05T11:46:05.693Z,59.01
2023-01-05T11:48:36.012Z,58.91
2023-01-05T11:51:03.102Z,59.20
2023-01-05T11:53:40.141Z,59.85
2023-01-05T11:56:24.788Z,58.77
2023-01-05T11:59:00.178Z,59.10
2023-01-05T12:01:30.348Z,59.45
2023-01-05T12:04:23.824Z,59.09
2023-01-05T12:07:17.147Z,58.38
2023-01-05T12:09:53.513Z,57.18
2023-01-05T12:12:46.164Z,56.59
2023-01-05T12:15:16.289Z,56.71
2023-01-05T12:18:10.536Z,57.15
2023-01-05T12:20:43.552Z,58.13
2023-01-05T12:23:28.106Z,55.78
2023-01-05T12:26:15.344Z,55.03
2023-01-05T12:35:53.381Z,54.98
2023-01-05T12:38:39.674Z,54.04
2023-01-05T12:41:36.739Z,53.55
2023-01-05T12:44:42.811Z,53.03
2023-01-05T12:47:25.306Z,53.04
2023-01-05T12:49:58.955Z,53.18
2023-01-05T12:52:32.986Z,53.26
2023-01-05T12:55:05.046Z,52.91
2023-01-05T12:57:54.238Z,53.23
2023-01-05T13:00:21.890Z,52.57
2023-01-05T13:02:53.849Z,52.91
2023-01-05T13:05:24.066Z,52.87
2023-01-05T13:08:00.141Z,53.26
2023-01-05T13:10:33.101Z,54.67
2023-01-05T13:13:10.986Z,55.98
2023-01-05T13:15:51.350Z,56.71
2023-01-05T13:18:21.648Z,57.49
2023-01-05T13:20:59.491Z,57.85
2023-01-05T13:23:42.485Z,58.13
2023-01-05T13:26:17.163Z,57.95
2023-01-05T13:28:48.319Z,57.97
2023-01-05T13:31:36.572Z,57.48
2023-01-05T13:34:36.561Z,57.95
2023-01-05T13:37:39.371Z,58.28
2023-01-05T13:40:44.098Z,58.11
2023-01-05T13:43:29.190Z,58.68
2023-01-05T13:46:02.094Z,58.86
2023-01-05T13:49:04.897Z,58.22
2023-01-05T13:51:54.544Z,57.98
2023-01-05T13:55:02.019Z,58.32
2023-01-05T13:57:38.914Z,58.24
2023-01-05T14:00:26.379Z,58.21
2023-01-05T14:03:07.478Z,58.01
2023-01-05T14:05:52.153Z,58.10
2023-01-05T14:08:32.777Z,58.35
2023-01-05T14:11:20.733Z,58.02
2023-01-05T14:13:59.799Z,58.39
2023-01-05T14:16:36.141Z,58.36
2023-01-05T14:19:24.334Z,58.48
2023-01-05T14:21:51.441Z,58.66
2023-01-05T14:27:21.125Z,59.05
2023-01-05T14:29:54.410Z,59.02
2023-01-05T14:32:39.465Z,58.92
2023-01-05T14:35:12.726Z,59.13
2023-01-05T14:37:52.420Z,59.30
2023-01-05T14:40:34.102Z,59.69
2023-01-05T14:43:05.412Z,59.66
2023-01-05T14:45:36.652Z,59.71
2023-01-05T14:48:10.223Z,60.10
2023-01-05T14:50:42.778Z,59.58
2023-01-05T14:53:09.566Z,60.07
2023-01-05T14:55:51.708Z,60.33
2023-01-05T14:58:36.957Z,60.37
2023-01-05T15:01:33.443Z,60.67
2023-01-05T15:04:03.226Z,60.81
2023-01-05T15:06:51.593Z,61.02
2023-01-05T15:09:36.956Z,61.31
2023-01-05T15:12:20.175Z,61.58
2023-01-05T15:15:22.225Z,61.90
2023-01-05T15:17:53.741Z,62.49
2023-01-05T15:20:20.738Z,63.02
2023-01-05T15:23:15.105Z,63.91
2023-01-05T15:26:08.492Z,64.24
2023-01-05T15:29:02.976Z,64.91
2023-01-05T15:31:48.884Z,65.49
2023-01-05T15:34:38.609Z,65.41
2023-01-05T15:37:21.825Z,66.81
2023-01-05T15:39:53.780Z,66.66
2023-01-05T15:42:31.308Z,66.97
2023-01-05T15:44:58.762Z,66.89
2023-01-05T15:47:28.910Z,67.13
2023-01-05T15:50:01.659Z,67.63
2023-01-05T15:52:35.103Z,68.25
2023-01-05T15:55:23.160Z,68.11
2023-01-05T15:57:56.528Z,68.00
2023-01-05T16:00:27.463Z,68.35
2023-01-05T16:02:54.780Z,68.32
2023-01-05T16:05:27.147Z,68.48
2023-01-05T16:08:06.421Z,68.52
2023-01-05T16:10:39.467Z,68.50
2023-01-05T16:13:15.369Z,68.56
2023-01-05T16:15:46.783Z,68.33
2023-01-05T16:18:20.868Z,68.61
2023-01-05T16:20:50.341Z,68.84
2023-01-05T16:23:33.707Z,68.66
2023-01-05T16:26:01.186Z,68.67
2023-01-05T16:28:28.463Z,68.92
2023-01-05T16:30:55.941Z,69.33
2023-01-05T16:33:38.802Z,69.49
2023-01-05T16:36:26.273Z,69.68
2023-01-05T16:38:53.464Z,69.77
2023-01-05T16:41:27.016Z,70.20
2023-01-05T16:43:56.211Z,70.10
2023-01-05T16:46:29.165Z,70.53
2023-01-05T16:49:57.628Z,70.49
2023-01-05T16:52:28.874Z,70.57
2023-01-05T16:55:31.729Z,71.14
2023-01-05T16:57:59.972Z,71.30
2023-01-05T17:00:30.170Z,71.15
2023-01-05T17:02:58.911Z,71.23
2023-01-05T17:05:33.804Z,71.11
2023-01-05T17:08:17.209Z,70.56
2023-01-05T17:10:45.054Z,70.61
2023-01-05T17:13:20.855Z,70.51
2023-01-05T17:15:51.184Z,70.34
2023-01-05T17:18:19.649Z,70.38
2023-01-05T17:20:47.957Z,70.49
2023-01-05T17:23:23.593Z,70.59
2023-01-05T17:28:22.341Z,71.14
2023-01-05T17:30:49.620Z,71.47
2023-01-05T17:33:17.439Z,71.49
2023-01-05T17:38:15.824Z,71.60
2023-01-05T17:40:42.902Z,71.54
2023-01-05T17:43:10.010Z,71.80
2023-01-05T17:45:40.799Z,71.83
2023-01-05T17:48:08.181Z,71.74
2023-01-05T17:50:35.340Z,71.49
2023-01-05T17:53:04.552Z,71.37
2023-01-05T17:55:31.858Z,71.54
2023-01-05T17:57:59.623Z,71.63
2023-01-05T18:00:29.436Z,71.79
2023-01-05T18:02:56.700Z,71.67
2023-01-05T18:05:23.853Z,71.56
2023-01-05T18:07:50.977Z,71.57
2023-01-05T18:10:22.034Z,71.63
2023-01-05T18:12:49.741Z,71.79
2023-01-05T18:15:17.780Z,71.83
2023-01-05T18:17:44.649Z,71.90
2023-01-05T18:20:15.155Z,71.88
2023-01-05T18:22:43.908Z,72.05
2023-01-05T18:25:12.934Z,72.16
2023-01-05T18:27:40.218Z,72.23
2023-01-05T18:30:09.448Z,72.24
2023-01-05T18:32:47.678Z,72.46
2023-01-05T18:35:15.026Z,72.46
2023-01-05T18:37:43.302Z,72.61
2023-01-05T18:40:11.534Z,73.01
2023-01-05T18:42:39.856Z,73.25
2023-01-05T18:45:18.900Z,73.40
2023-01-05T18:47:57.104Z,73.63
2023-01-05T18:50:24.654Z,73.40
2023-01-05T18:52:51.525Z,73.44
2023-01-05T18:55:18.528Z,73.66
2023-01-05T18:57:45.423Z,73.85
2023-01-05T19:00:13.405Z,73.99
2023-01-05T19:02:40.464Z,74.21
2023-01-05T19:05:09.065Z,74.25
2023-01-05T19:07:36.649Z,74.43
2023-01-05T19:10:03.706Z,74.83
2023-01-05T19:12:30.815Z,74.67
2023-01-05T19:14:57.855Z,75.16
2023-01-05T19:17:24.879Z,75.26
2023-01-05T19:19:52.067Z,75.25
2023-01-05T19:22:23.784Z,75.83
2023-01-05T19:24:53.142Z,76.21
2023-01-05T19:27:20.128Z,76.36
2023-01-05T19:29:47.523Z,76.17
2023-01-05T19:32:15.944Z,76.05
2023-01-05T19:34:43.035Z,75.88
2023-01-05T19:37:12.097Z,76.12
2023-01-05T19:39:39.044Z,76.22
2023-01-05T19:42:05.966Z,76.23
2023-01-05T19:44:33.228Z,76.28
2023-01-05T19:47:00.827Z,76.39
2023-01-05T19:49:28.227Z,76.09
2023-01-05T19:51:56.021Z,75.72
2023-01-05T19:54:25.370Z,75.60
2023-01-05T19:56:52.945Z,75.52
2023-01-05T19:59:24.681Z,75.20
2023-01-05T20:01:52.373Z,74.78
2023-01-05T20:04:20.141Z,74.60
2023-01-05T20:06:47.799Z,74.67
2023-01-05T20:09:19.096Z,74.76
2023-01-05T20:11:48.925Z,74.79
2023-01-05T20:14:34.438Z,74.58
2023-01-05T20:17:05.984Z,74.72
2023-01-05T20:19:36.841Z,74.65
2023-01-05T20:22:13.595Z,74.77
2023-01-05T20:24:41.481Z,74.66
2023-01-05T20:27:12.400Z,74.83
2023-01-05T20:29:40.593Z,74.85
2023-01-05T20:32:16.962Z,75.06
2023-01-05T20:34:48.993Z,75.03
2023-01-05T20:37:43.642Z,75.29
2023-01-05T20:40:23.584Z,75.23
2023-01-05T20:42:58.296Z,75.43
2023-01-05T20:45:25.227Z,75.77
2023-01-05T20:47:52.046Z,76.54
2023-01-05T20:50:31.068Z,76.51
2023-01-05T20:52:58.110Z,76.74
2023-01-05T20:55:25.144Z,77.13
2023-01-05T20:57:52.288Z,77.07
2023-01-05T21:00:19.210Z,77.21
2023-01-05T21:02:48.338Z,77.21
2023-01-05T21:05:15.503Z,77.55
2023-01-05T21:07:42.439Z,77.68
2023-01-05T21:10:09.514Z,77.48
2023-01-05T21:12:36.509Z,77.85
2023-01-05T21:15:04.096Z,77.82
2023-01-05T21:17:31.361Z,78.80
2023-01-05T21:19:58.601Z,79.29
2023-01-05T21:22:29.873Z,79.51
2023-01-05T21:24:57.114Z,79.52
2023-01-05T21:27:23.944Z,79.29
2023-01-05T21:29:50.962Z,79.44
2023-01-05T21:32:18.019Z,79.82
2023-01-05T21:34:49.023Z,80.02
2023-01-05T21:37:17.153Z,79.69
2023-01-05T21:39:44.335Z,79.99
2023-01-05T21:42:30.937Z,80.06
2023-01-05T21:44:57.878Z,79.97
2023-01-05T21:47:25.035Z,80.03
2023-01-05T21:49:51.946Z,80.33
2023-01-05T21:52:37.557Z,80.72
2023-01-05T21:55:23.471Z,80.73
2023-01-05T21:57:50.521Z,80.63
2023-01-05T22:00:17.509Z,80.61
2023-01-05T22:02:44.558Z,80.98
2023-01-05T22:05:11.526Z,80.96
2023-01-05T22:07:38.702Z,81.30
2023-01-05T22:10:06.166Z,81.25
2023-01-05T22:12:33.050Z,81.11
2023-01-05T22:15:00.089Z,81.34
2023-01-05T22:17:27.067Z,81.42
2023-01-05T22:19:54.336Z,81.56
2023-01-05T22:22:22.493Z,82.05
2023-01-05T22:24:49.795Z,82.29
2023-01-05T22:27:17.188Z,82.25
2023-01-05T22:29:44.147Z,82.05
2023-01-05T22:32:11.089Z,81.79
2023-01-05T22:34:43.881Z,82.20
2023-01-05T22:37:10.998Z,81.97
2023-01-05T22:39:37.844Z,81.63
2023-01-05T22:42:04.839Z,82.05
2023-01-05T22:44:31.915Z,82.04
2023-01-05T22:46:59.002Z,81.96
2023-01-05T22:49:26.213Z,81.92
2023-01-05T22:51:53.325Z,81.97
2023-01-05T22:54:20.586Z,81.74
2023-01-05T22:56:47.652Z,81.74
2023-01-05T22:59:14.551Z,81.77
2023-01-05T23:01:45.106Z,82.02
2023-01-05T23:04:16.020Z,81.53
2023-01-05T23:06:43.624Z,81.32
2023-01-05T23:09:14.574Z,80.75
2023-01-05T23:11:43.498Z,79.82
2023-01-05T23:14:12.002Z,79.50
2023-01-05T23:16:42.139Z,79.60
2023-01-05T23:19:09.371Z,79.73
2023-01-05T23:21:36.565Z,78.99
2023-01-05T23:24:03.995Z,78.51
2023-01-05T23:26:31.267Z,77.55
2023-01-05T23:28:58.611Z,77.04
2023-01-05T23:31:26.018Z,76.76
2023-01-05T23:33:53.523Z,76.20
2023-01-05T23:36:21.852Z,75.50
2023-01-05T23:38:49.033Z,75.14
2023-01-05T23:41:17.586Z,74.68
2023-01-05T23:43:45.998Z,73.97
2023-01-05T23:46:20.260Z,73.29
2023-01-05T23:48:48.881Z,73.04
2023-01-05T23:51:17.253Z,72.51
2023-01-05T23:53:49.913Z,72.16
2023-01-05T23:56:20.077Z,71.72
2023-01-05T23:58:48.358Z,71.52
